sensor_id;sensor_type;location;lat;lon;timestamp;P1;durP1;ratioP1;P2;durP2;ratioP2
4420;SDS011;11824;51.178;13.546;2023-04-23T00:01:18;22.07;;;17.33;;
4420;SDS011;11824;51.178;13.546;2023-04-23T00:03:50;27.30;;;16.47;;
4420;SDS011;11824;51.178;13.546;2023-04-23T00:06:20;25.77;;;17.00;;
4420;SDS011;11824;51.178;13.546;2023-04-23T00:08:52;20.70;;;16.27;;
4420;SDS011;11824;51.178;13.546;2023-04-23T00:11:20;30.33;;;17.77;;
4420;SDS011;11824;51.178;13.546;2023-04-23T00:13:47;22.30;;;17.87;;
4420;SDS011;11824;51.178;13.546;2023-04-23T00:16:17;34.80;;;17.00;;
4420;SDS011;11824;51.178;13.546;2023-04-23T00:18:45;25.73;;;16.90;;
4420;SDS011;11824;51.178;13.546;2023-04-23T00:21:13;19.37;;;15.67;;
4420;SDS011;11824;51.178;13.546;2023-04-23T00:23:41;30.73;;;16.73;;
4420;SDS011;11824;51.178;13.546;2023-04-23T00:26:08;23.27;;;15.90;;
4420;SDS011;11824;51.178;13.546;2023-04-23T00:28:35;25.50;;;17.27;;
4420;SDS011;11824;51.178;13.546;2023-04-23T00:31:03;31.87;;;18.60;;
4420;SDS011;11824;51.178;13.546;2023-04-23T00:33:31;24.90;;;17.53;;
4420;SDS011;11824;51.178;13.546;2023-04-23T00:35:58;19.60;;;16.50;;
4420;SDS011;11824;51.178;13.546;2023-04-23T00:38:26;25.70;;;16.50;;
4420;SDS011;11824;51.178;13.546;2023-04-23T00:40:53;21.90;;;16.10;;
4420;SDS011;11824;51.178;13.546;2023-04-23T00:43:20;25.90;;;16.83;;
4420;SDS011;11824;51.178;13.546;2023-04-23T00:45:49;23.33;;;16.70;;
4420;SDS011;11824;51.178;13.546;2023-04-23T00:48:16;25.00;;;17.37;;
4420;SDS011;11824;51.178;13.546;2023-04-23T00:50:44;23.03;;;16.30;;
4420;SDS011;11824;51.178;13.546;2023-04-23T00:53:12;41.10;;;16.70;;
4420;SDS011;11824;51.178;13.546;2023-04-23T00:55:42;36.93;;;17.87;;
4420;SDS011;11824;51.178;13.546;2023-04-23T00:58:09;30.50;;;17.03;;
4420;SDS011;11824;51.178;13.546;2023-04-23T01:00:37;20.07;;;16.43;;
4420;SDS011;11824;51.178;13.546;2023-04-23T01:03:11;24.47;;;17.50;;
4420;SDS011;11824;51.178;13.546;2023-04-23T01:05:41;25.43;;;18.23;;
4420;SDS011;11824;51.178;13.546;2023-04-23T01:08:09;23.30;;;17.10;;
4420;SDS011;11824;51.178;13.546;2023-04-23T01:10:41;21.70;;;16.30;;
4420;SDS011;11824;51.178;13.546;2023-04-23T01:13:09;21.93;;;15.03;;
4420;SDS011;11824;51.178;13.546;2023-04-23T01:15:37;23.10;;;15.30;;
4420;SDS011;11824;51.178;13.546;2023-04-23T01:18:08;24.93;;;16.77;;
4420;SDS011;11824;51.178;13.546;2023-04-23T01:20:36;22.57;;;15.70;;
4420;SDS011;11824;51.178;13.546;2023-04-23T01:23:04;24.97;;;17.17;;
4420;SDS011;11824;51.178;13.546;2023-04-23T01:25:32;31.77;;;16.50;;
4420;SDS011;11824;51.178;13.546;2023-04-23T01:28:00;21.10;;;15.40;;
4420;SDS011;11824;51.178;13.546;2023-04-23T01:30:28;26.93;;;16.60;;
4420;SDS011;11824;51.178;13.546;2023-04-23T01:32:56;25.13;;;15.37;;
4420;SDS011;11824;51.178;13.546;2023-04-23T01:35:24;25.00;;;16.00;;
4420;SDS011;11824;51.178;13.546;2023-04-23T01:37:52;27.47;;;15.47;;
4420;SDS011;11824;51.178;13.546;2023-04-23T01:40:20;25.90;;;15.27;;
4420;SDS011;11824;51.178;13.546;2023-04-23T01:42:48;23.70;;;16.30;;
4420;SDS011;11824;51.178;13.546;2023-04-23T01:45:15;22.73;;;15.80;;
4420;SDS011;11824;51.178;13.546;2023-04-23T01:47:44;19.40;;;14.83;;
4420;SDS011;11824;51.178;13.546;2023-04-23T01:50:12;29.80;;;15.60;;
4420;SDS011;11824;51.178;13.546;2023-04-23T01:52:40;21.70;;;15.07;;
4420;SDS011;11824;51.178;13.546;2023-04-23T01:55:12;20.50;;;14.87;;
4420;SDS011;11824;51.178;13.546;2023-04-23T01:57:40;24.03;;;15.10;;
4420;SDS011;11824;51.178;13.546;2023-04-23T02:00:08;21.10;;;16.20;;
4420;SDS011;11824;51.178;13.546;2023-04-23T02:02:38;24.90;;;15.13;;
4420;SDS011;11824;51.178;13.546;2023-04-23T02:05:09;22.23;;;15.63;;
4420;SDS011;11824;51.178;13.546;2023-04-23T02:07:39;36.67;;;17.00;;
4420;SDS011;11824;51.178;13.546;2023-04-23T02:10:08;105.70;;;39.43;;
4420;SDS011;11824;51.178;13.546;2023-04-23T02:12:36;66.33;;;29.30;;
4420;SDS011;11824;51.178;13.546;2023-04-23T02:15:05;28.80;;;17.23;;
4420;SDS011;11824;51.178;13.546;2023-04-23T02:17:34;23.57;;;15.87;;
4420;SDS011;11824;51.178;13.546;2023-04-23T02:20:02;22.50;;;14.30;;
4420;SDS011;11824;51.178;13.546;2023-04-23T02:22:34;25.00;;;14.57;;
4420;SDS011;11824;51.178;13.546;2023-04-23T02:25:03;22.97;;;13.53;;
4420;SDS011;11824;51.178;13.546;2023-04-23T02:27:31;18.63;;;14.60;;
4420;SDS011;11824;51.178;13.546;2023-04-23T02:29:59;18.40;;;14.17;;
4420;SDS011;11824;51.178;13.546;2023-04-23T02:32:27;22.93;;;14.80;;
4420;SDS011;11824;51.178;13.546;2023-04-23T02:34:55;20.53;;;13.50;;
4420;SDS011;11824;51.178;13.546;2023-04-23T02:37:24;20.23;;;14.10;;
4420;SDS011;11824;51.178;13.546;2023-04-23T02:39:51;22.90;;;14.57;;
4420;SDS011;11824;51.178;13.546;2023-04-23T02:42:19;16.50;;;13.77;;
4420;SDS011;11824;51.178;13.546;2023-04-23T02:44:49;18.87;;;13.90;;
4420;SDS011;11824;51.178;13.546;2023-04-23T02:47:16;29.50;;;16.53;;
4420;SDS011;11824;51.178;13.546;2023-04-23T02:49:44;18.90;;;13.40;;
4420;SDS011;11824;51.178;13.546;2023-04-23T02:52:11;19.37;;;14.67;;
4420;SDS011;11824;51.178;13.546;2023-04-23T02:54:39;21.10;;;13.80;;
4420;SDS011;11824;51.178;13.546;2023-04-23T02:57:07;18.50;;;13.93;;
4420;SDS011;11824;51.178;13.546;2023-04-23T02:59:34;19.00;;;14.20;;
4420;SDS011;11824;51.178;13.546;2023-04-23T03:02:02;25.47;;;13.37;;
4420;SDS011;11824;51.178;13.546;2023-04-23T03:04:30;17.60;;;12.97;;
4420;SDS011;11824;51.178;13.546;2023-04-23T03:06:58;29.13;;;14.27;;
4420;SDS011;11824;51.178;13.546;2023-04-23T03:09:26;18.23;;;13.93;;
4420;SDS011;11824;51.178;13.546;2023-04-23T03:11:53;22.80;;;13.80;;
4420;SDS011;11824;51.178;13.546;2023-04-23T03:14:22;27.70;;;17.17;;
4420;SDS011;11824;51.178;13.546;2023-04-23T03:16:49;23.03;;;14.30;;
4420;SDS011;11824;51.178;13.546;2023-04-23T03:19:17;18.83;;;13.20;;
4420;SDS011;11824;51.178;13.546;2023-04-23T03:21:45;17.87;;;12.97;;
4420;SDS011;11824;51.178;13.546;2023-04-23T03:24:13;24.33;;;13.73;;
4420;SDS011;11824;51.178;13.546;2023-04-23T03:26:41;14.10;;;11.17;;
4420;SDS011;11824;51.178;13.546;2023-04-23T03:29:08;23.17;;;12.87;;
4420;SDS011;11824;51.178;13.546;2023-04-23T03:31:36;21.10;;;13.00;;
4420;SDS011;11824;51.178;13.546;2023-04-23T03:34:03;17.40;;;12.43;;
4420;SDS011;11824;51.178;13.546;2023-04-23T03:36:31;15.20;;;12.00;;
4420;SDS011;11824;51.178;13.546;2023-04-23T03:38:58;19.80;;;12.87;;
4420;SDS011;11824;51.178;13.546;2023-04-23T03:41:27;25.40;;;14.47;;
4420;SDS011;11824;51.178;13.546;2023-04-23T03:43:54;26.80;;;14.07;;
4420;SDS011;11824;51.178;13.546;2023-04-23T03:46:22;17.57;;;12.90;;
4420;SDS011;11824;51.178;13.546;2023-04-23T03:48:49;37.40;;;21.93;;
4420;SDS011;11824;51.178;13.546;2023-04-23T03:51:17;31.03;;;16.60;;
4420;SDS011;11824;51.178;13.546;2023-04-23T03:53:44;24.57;;;14.73;;
4420;SDS011;11824;51.178;13.546;2023-04-23T03:56:12;21.27;;;14.33;;
4420;SDS011;11824;51.178;13.546;2023-04-23T03:58:41;23.77;;;14.87;;
4420;SDS011;11824;51.178;13.546;2023-04-23T04:01:08;20.13;;;15.30;;
4420;SDS011;11824;51.178;13.546;2023-04-23T04:03:36;32.23;;;14.70;;
4420;SDS011;11824;51.178;13.546;2023-04-23T04:06:04;24.80;;;14.53;;
4420;SDS011;11824;51.178;13.546;2023-04-23T04:08:32;20.03;;;14.10;;
4420;SDS011;11824;51.178;13.546;2023-04-23T04:11:00;21.03;;;13.40;;
4420;SDS011;11824;51.178;13.546;2023-04-23T04:13:27;26.73;;;13.93;;
4420;SDS011;11824;51.178;13.546;2023-04-23T04:15:56;20.77;;;13.90;;
4420;SDS011;11824;51.178;13.546;2023-04-23T04:18:24;22.20;;;16.17;;
4420;SDS011;11824;51.178;13.546;2023-04-23T04:20:51;17.93;;;13.93;;
4420;SDS011;11824;51.178;13.546;2023-04-23T04:23:19;25.37;;;14.33;;
4420;SDS011;11824;51.178;13.546;2023-04-23T04:25:46;20.57;;;14.73;;
4420;SDS011;11824;51.178;13.546;2023-04-23T04:28:15;18.10;;;13.80;;
4420;SDS011;11824;51.178;13.546;2023-04-23T04:30:43;26.73;;;14.47;;
4420;SDS011;11824;51.178;13.546;2023-04-23T04:33:11;30.70;;;17.43;;
4420;SDS011;11824;51.178;13.546;2023-04-23T04:35:39;44.07;;;21.77;;
4420;SDS011;11824;51.178;13.546;2023-04-23T04:38:07;31.07;;;20.83;;
4420;SDS011;11824;51.178;13.546;2023-04-23T04:40:34;26.50;;;16.70;;
4420;SDS011;11824;51.178;13.546;2023-04-23T04:43:02;33.57;;;19.47;;
4420;SDS011;11824;51.178;13.546;2023-04-23T04:45:30;28.10;;;16.00;;
4420;SDS011;11824;51.178;13.546;2023-04-23T04:47:58;39.17;;;20.07;;
4420;SDS011;11824;51.178;13.546;2023-04-23T04:50:26;24.00;;;15.77;;
4420;SDS011;11824;51.178;13.546;2023-04-23T04:52:53;55.87;;;31.27;;
4420;SDS011;11824;51.178;13.546;2023-04-23T04:55:21;27.87;;;18.10;;
4420;SDS011;11824;51.178;13.546;2023-04-23T04:57:48;30.63;;;17.57;;
4420;SDS011;11824;51.178;13.546;2023-04-23T05:00:20;18.30;;;13.90;;
4420;SDS011;11824;51.178;13.546;2023-04-23T05:02:49;18.67;;;13.80;;
4420;SDS011;11824;51.178;13.546;2023-04-23T05:05:17;19.23;;;13.70;;
4420;SDS011;11824;51.178;13.546;2023-04-23T05:07:47;22.27;;;11.63;;
4420;SDS011;11824;51.178;13.546;2023-04-23T05:10:15;19.13;;;14.20;;
4420;SDS011;11824;51.178;13.546;2023-04-23T05:12:43;19.90;;;12.70;;
4420;SDS011;11824;51.178;13.546;2023-04-23T05:15:11;22.50;;;11.97;;
4420;SDS011;11824;51.178;13.546;2023-04-23T05:17:39;16.80;;;13.70;;
4420;SDS011;11824;51.178;13.546;2023-04-23T05:20:08;24.23;;;13.37;;
4420;SDS011;11824;51.178;13.546;2023-04-23T05:22:36;20.40;;;14.20;;
4420;SDS011;11824;51.178;13.546;2023-04-23T05:25:06;28.90;;;14.43;;
4420;SDS011;11824;51.178;13.546;2023-04-23T05:27:34;21.40;;;13.30;;
4420;SDS011;11824;51.178;13.546;2023-04-23T05:30:02;13.23;;;11.43;;
4420;SDS011;11824;51.178;13.546;2023-04-23T05:32:31;20.33;;;13.57;;
4420;SDS011;11824;51.178;13.546;2023-04-23T05:34:59;19.30;;;12.07;;
4420;SDS011;11824;51.178;13.546;2023-04-23T05:37:28;18.20;;;11.60;;
4420;SDS011;11824;51.178;13.546;2023-04-23T05:39:55;18.57;;;12.07;;
4420;SDS011;11824;51.178;13.546;2023-04-23T05:42:24;20.53;;;11.47;;
4420;SDS011;11824;51.178;13.546;2023-04-23T05:44:51;26.57;;;11.53;;
4420;SDS011;11824;51.178;13.546;2023-04-23T05:47:19;13.77;;;10.70;;
4420;SDS011;11824;51.178;13.546;2023-04-23T05:49:46;17.10;;;10.57;;
4420;SDS011;11824;51.178;13.546;2023-04-23T05:52:14;14.73;;;10.20;;
4420;SDS011;11824;51.178;13.546;2023-04-23T05:54:42;14.47;;;8.90;;
4420;SDS011;11824;51.178;13.546;2023-04-23T05:57:10;16.33;;;10.03;;
4420;SDS011;11824;51.178;13.546;2023-04-23T05:59:38;15.40;;;9.40;;
4420;SDS011;11824;51.178;13.546;2023-04-23T06:02:06;14.37;;;9.53;;
4420;SDS011;11824;51.178;13.546;2023-04-23T06:04:35;12.23;;;8.83;;
4420;SDS011;11824;51.178;13.546;2023-04-23T06:07:03;12.80;;;8.33;;
4420;SDS011;11824;51.178;13.546;2023-04-23T06:09:31;10.40;;;7.60;;
4420;SDS011;11824;51.178;13.546;2023-04-23T06:11:58;9.07;;;7.77;;
4420;SDS011;11824;51.178;13.546;2023-04-23T06:14:27;9.00;;;6.20;;
4420;SDS011;11824;51.178;13.546;2023-04-23T06:16:56;8.00;;;6.27;;
4420;SDS011;11824;51.178;13.546;2023-04-23T06:19:23;9.30;;;6.13;;
4420;SDS011;11824;51.178;13.546;2023-04-23T06:21:52;7.90;;;5.77;;
4420;SDS011;11824;51.178;13.546;2023-04-23T06:24:20;7.20;;;5.20;;
4420;SDS011;11824;51.178;13.546;2023-04-23T06:26:47;11.67;;;7.43;;
4420;SDS011;11824;51.178;13.546;2023-04-23T06:29:15;10.70;;;6.67;;
4420;SDS011;11824;51.178;13.546;2023-04-23T06:31:42;8.87;;;6.33;;
4420;SDS011;11824;51.178;13.546;2023-04-23T06:34:11;9.17;;;6.50;;
4420;SDS011;11824;51.178;13.546;2023-04-23T06:36:38;6.60;;;4.63;;
4420;SDS011;11824;51.178;13.546;2023-04-23T06:39:08;5.73;;;4.07;;
4420;SDS011;11824;51.178;13.546;2023-04-23T06:41:35;3.87;;;3.57;;
4420;SDS011;11824;51.178;13.546;2023-04-23T06:44:03;5.37;;;3.47;;
4420;SDS011;11824;51.178;13.546;2023-04-23T06:46:31;6.17;;;3.83;;
4420;SDS011;11824;51.178;13.546;2023-04-23T06:48:58;3.73;;;3.10;;
4420;SDS011;11824;51.178;13.546;2023-04-23T06:51:27;4.93;;;3.60;;
4420;SDS011;11824;51.178;13.546;2023-04-23T06:53:56;7.70;;;4.90;;
4420;SDS011;11824;51.178;13.546;2023-04-23T06:56:23;4.50;;;3.43;;
4420;SDS011;11824;51.178;13.546;2023-04-23T06:58:52;5.77;;;4.00;;
4420;SDS011;11824;51.178;13.546;2023-04-23T07:01:19;8.77;;;4.80;;
4420;SDS011;11824;51.178;13.546;2023-04-23T07:03:47;37.37;;;7.23;;
4420;SDS011;11824;51.178;13.546;2023-04-23T07:06:17;15.27;;;7.80;;
4420;SDS011;11824;51.178;13.546;2023-04-23T07:08:46;6.10;;;4.30;;
4420;SDS011;11824;51.178;13.546;2023-04-23T07:11:14;5.40;;;4.57;;
4420;SDS011;11824;51.178;13.546;2023-04-23T07:13:42;10.70;;;4.63;;
4420;SDS011;11824;51.178;13.546;2023-04-23T07:16:09;6.03;;;4.60;;
4420;SDS011;11824;51.178;13.546;2023-04-23T07:18:37;5.10;;;4.03;;
4420;SDS011;11824;51.178;13.546;2023-04-23T07:21:04;8.07;;;3.63;;
4420;SDS011;11824;51.178;13.546;2023-04-23T07:23:31;7.53;;;3.70;;
4420;SDS011;11824;51.178;13.546;2023-04-23T07:26:00;5.53;;;3.83;;
4420;SDS011;11824;51.178;13.546;2023-04-23T07:28:28;3.90;;;3.60;;
4420;SDS011;11824;51.178;13.546;2023-04-23T07:30:56;5.27;;;3.40;;
4420;SDS011;11824;51.178;13.546;2023-04-23T07:33:24;12.27;;;4.50;;
4420;SDS011;11824;51.178;13.546;2023-04-23T07:35:51;6.10;;;3.90;;
4420;SDS011;11824;51.178;13.546;2023-04-23T07:38:19;10.07;;;4.27;;
4420;SDS011;11824;51.178;13.546;2023-04-23T07:40:46;10.43;;;3.40;;
4420;SDS011;11824;51.178;13.546;2023-04-23T07:43:15;5.23;;;4.40;;
4420;SDS011;11824;51.178;13.546;2023-04-23T07:45:42;5.67;;;4.60;;
4420;SDS011;11824;51.178;13.546;2023-04-23T07:48:09;4.70;;;4.20;;
4420;SDS011;11824;51.178;13.546;2023-04-23T07:50:37;4.87;;;4.27;;
4420;SDS011;11824;51.178;13.546;2023-04-23T07:53:05;8.20;;;4.87;;
4420;SDS011;11824;51.178;13.546;2023-04-23T07:55:32;5.20;;;3.40;;
4420;SDS011;11824;51.178;13.546;2023-04-23T07:58:00;7.07;;;4.60;;
4420;SDS011;11824;51.178;13.546;2023-04-23T08:00:28;4.33;;;3.57;;
4420;SDS011;11824;51.178;13.546;2023-04-23T08:02:55;3.40;;;3.10;;
4420;SDS011;11824;51.178;13.546;2023-04-23T08:05:23;6.90;;;3.30;;
4420;SDS011;11824;51.178;13.546;2023-04-23T08:07:51;2.77;;;2.17;;
4420;SDS011;11824;51.178;13.546;2023-04-23T08:10:19;2.37;;;2.17;;
4420;SDS011;11824;51.178;13.546;2023-04-23T08:12:46;2.60;;;2.40;;
4420;SDS011;11824;51.178;13.546;2023-04-23T08:15:14;4.17;;;2.43;;
4420;SDS011;11824;51.178;13.546;2023-04-23T08:17:42;7.73;;;2.80;;
4420;SDS011;11824;51.178;13.546;2023-04-23T08:20:09;3.07;;;2.77;;
4420;SDS011;11824;51.178;13.546;2023-04-23T08:22:37;3.67;;;2.00;;
4420;SDS011;11824;51.178;13.546;2023-04-23T08:25:05;2.90;;;2.60;;
4420;SDS011;11824;51.178;13.546;2023-04-23T08:27:33;4.87;;;2.57;;
4420;SDS011;11824;51.178;13.546;2023-04-23T08:30:00;2.50;;;2.30;;
4420;SDS011;11824;51.178;13.546;2023-04-23T08:32:27;4.67;;;2.50;;
4420;SDS011;11824;51.178;13.546;2023-04-23T08:34:56;2.77;;;2.57;;
4420;SDS011;11824;51.178;13.546;2023-04-23T08:37:24;5.70;;;3.23;;
4420;SDS011;11824;51.178;13.546;2023-04-23T08:39:56;2.07;;;1.87;;
4420;SDS011;11824;51.178;13.546;2023-04-23T08:42:26;6.50;;;2.73;;
4420;SDS011;11824;51.178;13.546;2023-04-23T08:45:02;3.00;;;2.70;;
4420;SDS011;11824;51.178;13.546;2023-04-23T08:47:30;18.77;;;16.83;;
4420;SDS011;11824;51.178;13.546;2023-04-23T08:49:59;4.40;;;2.10;;
4420;SDS011;11824;51.178;13.546;2023-04-23T08:52:30;3.03;;;2.57;;
4420;SDS011;11824;51.178;13.546;2023-04-23T08:55:00;3.50;;;2.33;;
4420;SDS011;11824;51.178;13.546;2023-04-23T08:57:30;5.00;;;2.80;;
4420;SDS011;11824;51.178;13.546;2023-04-23T08:59:58;5.07;;;2.37;;
4420;SDS011;11824;51.178;13.546;2023-04-23T09:02:30;2.77;;;2.57;;
4420;SDS011;11824;51.178;13.546;2023-04-23T09:05:01;6.70;;;3.60;;
4420;SDS011;11824;51.178;13.546;2023-04-23T09:07:29;1.80;;;1.70;;
4420;SDS011;11824;51.178;13.546;2023-04-23T09:09:56;3.13;;;2.80;;
4420;SDS011;11824;51.178;13.546;2023-04-23T09:12:24;5.43;;;4.10;;
4420;SDS011;11824;51.178;13.546;2023-04-23T09:14:52;5.80;;;4.97;;
4420;SDS011;11824;51.178;13.546;2023-04-23T09:17:19;6.07;;;2.70;;
4420;SDS011;11824;51.178;13.546;2023-04-23T09:19:48;3.20;;;2.20;;
4420;SDS011;11824;51.178;13.546;2023-04-23T09:25:13;2.70;;;2.50;;
4420;SDS011;11824;51.178;13.546;2023-04-23T09:27:43;2.50;;;2.30;;
4420;SDS011;11824;51.178;13.546;2023-04-23T09:30:11;3.07;;;1.60;;
4420;SDS011;11824;51.178;13.546;2023-04-23T09:32:40;3.60;;;3.07;;
4420;SDS011;11824;51.178;13.546;2023-04-23T09:35:09;4.57;;;2.60;;
4420;SDS011;11824;51.178;13.546;2023-04-23T09:37:40;3.80;;;2.93;;
4420;SDS011;11824;51.178;13.546;2023-04-23T09:40:09;2.33;;;1.97;;
4420;SDS011;11824;51.178;13.546;2023-04-23T09:42:40;1.63;;;1.53;;
4420;SDS011;11824;51.178;13.546;2023-04-23T09:45:14;2.40;;;2.20;;
4420;SDS011;11824;51.178;13.546;2023-04-23T09:47:47;1.90;;;1.80;;
4420;SDS011;11824;51.178;13.546;2023-04-23T09:50:16;2.10;;;1.80;;
4420;SDS011;11824;51.178;13.546;2023-04-23T09:52:44;4.43;;;2.57;;
4420;SDS011;11824;51.178;13.546;2023-04-23T09:55:26;2.50;;;1.93;;
4420;SDS011;11824;51.178;13.546;2023-04-23T09:57:55;3.70;;;2.00;;
4420;SDS011;11824;51.178;13.546;2023-04-23T10:00:24;5.27;;;2.37;;
4420;SDS011;11824;51.178;13.546;2023-04-23T10:02:55;6.33;;;2.13;;
4420;SDS011;11824;51.178;13.546;2023-04-23T10:05:24;2.80;;;2.23;;
4420;SDS011;11824;51.178;13.546;2023-04-23T10:08:03;4.17;;;1.90;;
4420;SDS011;11824;51.178;13.546;2023-04-23T10:10:31;1.70;;;1.60;;
4420;SDS011;11824;51.178;13.546;2023-04-23T10:13:16;2.13;;;1.93;;
4420;SDS011;11824;51.178;13.546;2023-04-23T10:15:46;2.07;;;1.67;;
4420;SDS011;11824;51.178;13.546;2023-04-23T10:18:14;1.77;;;1.50;;
4420;SDS011;11824;51.178;13.546;2023-04-23T10:20:41;3.23;;;2.00;;
4420;SDS011;11824;51.178;13.546;2023-04-23T10:23:09;10.10;;;5.00;;
4420;SDS011;11824;51.178;13.546;2023-04-23T10:25:38;7.23;;;4.47;;
4420;SDS011;11824;51.178;13.546;2023-04-23T10:28:07;4.77;;;3.93;;
4420;SDS011;11824;51.178;13.546;2023-04-23T10:30:37;7.87;;;5.63;;
4420;SDS011;11824;51.178;13.546;2023-04-23T10:33:05;4.53;;;4.13;;
4420;SDS011;11824;51.178;13.546;2023-04-23T10:35:44;1.97;;;1.87;;
4420;SDS011;11824;51.178;13.546;2023-04-23T10:38:14;1.13;;;1.03;;
4420;SDS011;11824;51.178;13.546;2023-04-23T10:40:43;2.10;;;1.50;;
4420;SDS011;11824;51.178;13.546;2023-04-23T10:43:13;1.43;;;1.33;;
4420;SDS011;11824;51.178;13.546;2023-04-23T10:45:42;3.97;;;1.77;;
4420;SDS011;11824;51.178;13.546;2023-04-23T10:48:09;1.90;;;1.00;;
4420;SDS011;11824;51.178;13.546;2023-04-23T10:50:37;3.00;;;1.77;;
4420;SDS011;11824;51.178;13.546;2023-04-23T10:53:26;2.10;;;1.30;;
4420;SDS011;11824;51.178;13.546;2023-04-23T10:56:03;1.50;;;1.40;;
4420;SDS011;11824;51.178;13.546;2023-04-23T10:58:46;12.77;;;2.13;;
4420;SDS011;11824;51.178;13.546;2023-04-23T11:01:15;3.47;;;2.27;;
4420;SDS011;11824;51.178;13.546;2023-04-23T11:03:43;2.20;;;1.33;;
4420;SDS011;11824;51.178;13.546;2023-04-23T11:06:12;1.47;;;1.10;;
4420;SDS011;11824;51.178;13.546;2023-04-23T11:08:52;1.80;;;1.70;;
4420;SDS011;11824;51.178;13.546;2023-04-23T11:11:23;1.70;;;1.20;;
4420;SDS011;11824;51.178;13.546;2023-04-23T11:14:09;1.70;;;1.50;;
4420;SDS011;11824;51.178;13.546;2023-04-23T11:16:39;2.13;;;1.83;;
4420;SDS011;11824;51.178;13.546;2023-04-23T11:19:07;1.67;;;1.50;;
4420;SDS011;11824;51.178;13.546;2023-04-23T11:24:24;1.27;;;1.17;;
4420;SDS011;11824;51.178;13.546;2023-04-23T11:26:53;1.33;;;1.23;;
4420;SDS011;11824;51.178;13.546;2023-04-23T11:29:21;2.10;;;1.47;;
4420;SDS011;11824;51.178;13.546;2023-04-23T11:31:50;1.70;;;1.60;;
4420;SDS011;11824;51.178;13.546;2023-04-23T11:34:28;2.03;;;1.13;;
4420;SDS011;11824;51.178;13.546;2023-04-23T11:36:55;2.03;;;1.90;;
4420;SDS011;11824;51.178;13.546;2023-04-23T11:39:25;8.50;;;6.10;;
4420;SDS011;11824;51.178;13.546;2023-04-23T11:41:53;1.60;;;1.50;;
4420;SDS011;11824;51.178;13.546;2023-04-23T11:44:21;1.57;;;1.23;;
4420;SDS011;11824;51.178;13.546;2023-04-23T11:46:49;1.13;;;1.07;;
4420;SDS011;11824;51.178;13.546;2023-04-23T11:49:17;2.50;;;1.43;;
4420;SDS011;11824;51.178;13.546;2023-04-23T11:51:45;1.43;;;1.10;;
4420;SDS011;11824;51.178;13.546;2023-04-23T11:54:13;1.40;;;1.30;;
4420;SDS011;11824;51.178;13.546;2023-04-23T11:56:41;1.47;;;1.37;;
4420;SDS011;11824;51.178;13.546;2023-04-23T11:59:09;1.83;;;1.47;;
4420;SDS011;11824;51.178;13.546;2023-04-23T12:01:40;1.47;;;1.33;;
4420;SDS011;11824;51.178;13.546;2023-04-23T12:04:10;1.87;;;1.10;;
4420;SDS011;11824;51.178;13.546;2023-04-23T12:06:39;1.63;;;1.53;;
4420;SDS011;11824;51.178;13.546;2023-04-23T12:09:07;1.53;;;1.43;;
4420;SDS011;11824;51.178;13.546;2023-04-23T12:11:36;1.50;;;1.10;;
4420;SDS011;11824;51.178;13.546;2023-04-23T12:14:05;1.10;;;1.00;;
4420;SDS011;11824;51.178;13.546;2023-04-23T12:16:34;2.73;;;1.30;;
4420;SDS011;11824;51.178;13.546;2023-04-23T12:19:03;1.57;;;1.40;;
4420;SDS011;11824;51.178;13.546;2023-04-23T12:21:32;2.03;;;1.20;;
4420;SDS011;11824;51.178;13.546;2023-04-23T12:24:01;1.33;;;1.07;;
4420;SDS011;11824;51.178;13.546;2023-04-23T12:26:30;1.40;;;1.30;;
4420;SDS011;11824;51.178;13.546;2023-04-23T12:28:59;1.67;;;1.33;;
4420;SDS011;11824;51.178;13.546;2023-04-23T12:31:27;2.03;;;1.33;;
4420;SDS011;11824;51.178;13.546;2023-04-23T12:33:56;2.10;;;1.30;;
4420;SDS011;11824;51.178;13.546;2023-04-23T12:36:25;1.00;;;1.00;;
4420;SDS011;11824;51.178;13.546;2023-04-23T12:38:54;1.67;;;1.47;;
4420;SDS011;11824;51.178;13.546;2023-04-23T12:41:46;1.30;;;1.20;;
4420;SDS011;11824;51.178;13.546;2023-04-23T12:44:14;1.87;;;1.30;;
4420;SDS011;11824;51.178;13.546;2023-04-23T12:46:42;1.80;;;1.50;;
4420;SDS011;11824;51.178;13.546;2023-04-23T12:49:09;1.90;;;1.40;;
4420;SDS011;11824;51.178;13.546;2023-04-23T12:51:37;2.23;;;1.30;;
4420;SDS011;11824;51.178;13.546;2023-04-23T12:54:10;4.93;;;1.10;;
4420;SDS011;11824;51.178;13.546;2023-04-23T12:56:38;1.47;;;1.30;;
4420;SDS011;11824;51.178;13.546;2023-04-23T12:59:06;1.53;;;1.27;;
4420;SDS011;11824;51.178;13.546;2023-04-23T13:01:33;1.73;;;1.43;;
4420;SDS011;11824;51.178;13.546;2023-04-23T13:04:01;4.93;;;1.40;;
4420;SDS011;11824;51.178;13.546;2023-04-23T13:06:29;2.60;;;1.40;;
4420;SDS011;11824;51.178;13.546;2023-04-23T13:08:57;1.50;;;1.40;;
4420;SDS011;11824;51.178;13.546;2023-04-23T13:11:26;4.10;;;1.37;;
4420;SDS011;11824;51.178;13.546;2023-04-23T13:13:54;9.03;;;3.70;;
4420;SDS011;11824;51.178;13.546;2023-04-23T13:16:21;1.50;;;1.40;;
4420;SDS011;11824;51.178;13.546;2023-04-23T13:18:49;1.57;;;1.37;;
4420;SDS011;11824;51.178;13.546;2023-04-23T13:21:17;2.80;;;1.07;;
4420;SDS011;11824;51.178;13.546;2023-04-23T13:23:45;2.03;;;1.33;;
4420;SDS011;11824;51.178;13.546;2023-04-23T13:26:12;1.63;;;1.37;;
4420;SDS011;11824;51.178;13.546;2023-04-23T13:28:39;1.90;;;1.70;;
4420;SDS011;11824;51.178;13.546;2023-04-23T13:31:07;3.70;;;1.60;;
4420;SDS011;11824;51.178;13.546;2023-04-23T13:33:36;1.57;;;1.30;;
4420;SDS011;11824;51.178;13.546;2023-04-23T13:36:04;1.37;;;1.23;;
4420;SDS011;11824;51.178;13.546;2023-04-23T13:38:34;7.40;;;4.10;;
4420;SDS011;11824;51.178;13.546;2023-04-23T13:41:02;2.70;;;1.83;;
4420;SDS011;11824;51.178;13.546;2023-04-23T13:43:31;4.87;;;1.63;;
4420;SDS011;11824;51.178;13.546;2023-04-23T13:45:58;1.90;;;1.47;;
4420;SDS011;11824;51.178;13.546;2023-04-23T13:48:26;2.10;;;1.67;;
4420;SDS011;11824;51.178;13.546;2023-04-23T13:50:56;8.57;;;1.20;;
4420;SDS011;11824;51.178;13.546;2023-04-23T13:53:25;1.63;;;1.30;;
4420;SDS011;11824;51.178;13.546;2023-04-23T13:55:55;1.67;;;1.47;;
4420;SDS011;11824;51.178;13.546;2023-04-23T13:58:24;1.20;;;1.10;;
4420;SDS011;11824;51.178;13.546;2023-04-23T14:00:52;1.30;;;1.20;;
4420;SDS011;11824;51.178;13.546;2023-04-23T14:03:20;1.93;;;1.80;;
4420;SDS011;11824;51.178;13.546;2023-04-23T14:05:48;2.40;;;1.60;;
4420;SDS011;11824;51.178;13.546;2023-04-23T14:08:16;1.13;;;1.10;;
4420;SDS011;11824;51.178;13.546;2023-04-23T14:10:43;1.50;;;1.40;;
4420;SDS011;11824;51.178;13.546;2023-04-23T14:13:12;1.60;;;1.50;;
4420;SDS011;11824;51.178;13.546;2023-04-23T14:15:40;1.50;;;1.40;;
4420;SDS011;11824;51.178;13.546;2023-04-23T14:18:08;1.40;;;1.30;;
4420;SDS011;11824;51.178;13.546;2023-04-23T14:20:36;1.40;;;1.30;;
4420;SDS011;11824;51.178;13.546;2023-04-23T14:23:22;4.43;;;1.40;;
4420;SDS011;11824;51.178;13.546;2023-04-23T14:26:09;4.90;;;1.57;;
4420;SDS011;11824;51.178;13.546;2023-04-23T14:28:46;4.33;;;1.60;;
4420;SDS011;11824;51.178;13.546;2023-04-23T14:31:17;1.47;;;1.37;;
4420;SDS011;11824;51.178;13.546;2023-04-23T14:33:45;1.40;;;1.30;;
4420;SDS011;11824;51.178;13.546;2023-04-23T14:36:13;3.20;;;1.33;;
4420;SDS011;11824;51.178;13.546;2023-04-23T14:38:42;1.30;;;1.20;;
4420;SDS011;11824;51.178;13.546;2023-04-23T14:41:09;1.23;;;1.20;;
4420;SDS011;11824;51.178;13.546;2023-04-23T14:43:37;8.97;;;2.20;;
4420;SDS011;11824;51.178;13.546;2023-04-23T14:46:06;1.83;;;1.47;;
4420;SDS011;11824;51.178;13.546;2023-04-23T14:48:36;1.47;;;1.37;;
4420;SDS011;11824;51.178;13.546;2023-04-23T14:51:04;1.50;;;1.40;;